Terminal Aerodrome Forecast
Issued by NWS

Home | Current Version | Previous Version | Text Only | Print | Product List | Glossary On
Versions: 1 2 3 4 5 6 7 8 9 10 11 12 13 14 15
000
FTUS44 KBMX 261121
TAFTCL
TAF
KTCL 261121Z 2612/2712 19005KT P6SM SKC
     FM261500 18010G17KT P6SM SCT250
     FM261800 18014G22KT P6SM SCT250
     FM270200 15014G21KT P6SM SCT050
     FM270800 19014G23KT P6SM VCTS BKN030CB=

USA.gov is the U.S. government's official web portal to all federal, state and local government web resources and services.